FADY

De Aar Military Airport

De Aar, South Africa
METAR FADY 150833Z 05004KT CAVOK 29/02 Q1021
Observed Flight Rules
Dec-15 @ 08:33 UTC (9 hours ago) Visual Flight Rules
Wind Visibility Clouds
50° at 4 knots 10,000+ meters
  • Clear skies
Temperatures Readings
Current 29°C / 84°F
Dewpoint 2°C / 36°F
Humidity 18%
Altimeter 30.15" Hg
Pressure 1021 hPa
Elevation 384
METAR FADY 150833Z 05004KT CAVOK 29/02 Q1021
Observed Flight Rules
Dec-15 @ 08:33 UTC
(9 hours ago)
VFR
Wind Visibility
50° at 4 knots 10,000+ meters
Clouds
  • Clear skies
Temperature Dewpoint
29°C / 84°F 2°C / 36°F
Humidity Altimeter Pressure
18% 30.15" Hg 1021 hPa